KCIN

Details ICAO KCIN
Name Arthur N. Neu
Region United States
Timezone America/Chicago (UTC-5.0)
Plans Departing 6
Arriving 14
Stats Elevation 1,203 ft / 367 m (AMSL)
Location 42.046900° -94.788700°
Runways 2
Magnetic Variation 1.357° E
Sunrise 2021-05-16 10:58:42 UTC / 2021-05-16 05:58:42 Local
Sunset 2021-05-17 01:35:08 UTC / 2021-05-16 20:35:08 Local
Advertisement - Login to hide

Runways

ID Width Length Bearing (true/mag) Surface Threshold Overrun Markings Lighting
03 60 ft / 18 m 3,302 ft / 1,007 m 29.82° / 28.47° CONCRETE 0 ft / 0 m 0 ft / 0 m VISUAL EDGE THRESHOLD REIL-OMNI
13 100 ft / 30 m 5,502 ft / 1,677 m 136.75° / 135.39° CONCRETE 505 ft / 154 m 0 ft / 0 m APP EDGE THRESHOLD REIL-OMNI
21 60 ft / 18 m 3,302 ft / 1,007 m 209.83° / 208.47° CONCRETE 0 ft / 0 m 0 ft / 0 m VISUAL EDGE THRESHOLD REIL-OMNI
31 100 ft / 30 m 5,502 ft / 1,677 m 316.76° / 315.40° CONCRETE 0 ft / 0 m 0 ft / 0 m APP EDGE THRESHOLD REIL-OMNI

Map

Weather


0- 5 10 15 20 25 30 35+ Temperature / °C

Clouds and Precipitation
Forecast for 2021-03-22 12:00 UTC. Updated 2 months ago

Ground ~20,000 ft ~40,000 ft Winds

METAR

KCIN 162135Z AUTO 10014KT 10SM FEW018 FEW120 17/16 A3003 RMK AO2

TAF

Not found

Frequencies

Recorded 118.02 MHz AWOS-3
Unicom 122.80 MHz CTAF
Warning: Do not use this data for real-world aviation or navigation. No guarantee of current accuracy is given.